sensor_id;sensor_type;location;lat;lon;timestamp;P1;durP1;ratioP1;P2;durP2;ratioP2
45842;SDS011;31563;51.744;8.252;2023-02-26T00:01:39;1.45;;;0.68;;
45842;SDS011;31563;51.744;8.252;2023-02-26T00:04:08;1.95;;;1.00;;
45842;SDS011;31563;51.744;8.252;2023-02-26T00:06:37;2.00;;;0.45;;
45842;SDS011;31563;51.744;8.252;2023-02-26T00:09:20;1.33;;;0.60;;
45842;SDS011;31563;51.744;8.252;2023-02-26T00:11:48;0.80;;;0.30;;
45842;SDS011;31563;51.744;8.252;2023-02-26T00:14:18;1.25;;;0.60;;
45842;SDS011;31563;51.744;8.252;2023-02-26T00:16:49;0.65;;;0.40;;
45842;SDS011;31563;51.744;8.252;2023-02-26T00:19:22;1.33;;;0.50;;
45842;SDS011;31563;51.744;8.252;2023-02-26T00:21:50;1.50;;;0.45;;
45842;SDS011;31563;51.744;8.252;2023-02-26T00:24:19;3.15;;;0.47;;
45842;SDS011;31563;51.744;8.252;2023-02-26T00:26:47;1.00;;;0.40;;
45842;SDS011;31563;51.744;8.252;2023-02-26T00:29:15;1.90;;;0.50;;
45842;SDS011;31563;51.744;8.252;2023-02-26T00:31:46;1.25;;;0.40;;
45842;SDS011;31563;51.744;8.252;2023-02-26T00:34:14;1.35;;;0.50;;
45842;SDS011;31563;51.744;8.252;2023-02-26T00:36:43;0.82;;;0.40;;
45842;SDS011;31563;51.744;8.252;2023-02-26T00:39:20;1.35;;;0.40;;
45842;SDS011;31563;51.744;8.252;2023-02-26T00:41:57;1.23;;;0.50;;
45842;SDS011;31563;51.744;8.252;2023-02-26T00:44:26;1.83;;;0.40;;
45842;SDS011;31563;51.744;8.252;2023-02-26T00:46:57;0.50;;;0.30;;
45842;SDS011;31563;51.744;8.252;2023-02-26T00:49:39;1.00;;;0.70;;
45842;SDS011;31563;51.744;8.252;2023-02-26T00:52:14;0.90;;;0.40;;
45842;SDS011;31563;51.744;8.252;2023-02-26T00:54:52;1.33;;;0.50;;
45842;SDS011;31563;51.744;8.252;2023-02-26T00:57:20;2.58;;;0.52;;
45842;SDS011;31563;51.744;8.252;2023-02-26T00:59:48;1.95;;;0.60;;
45842;SDS011;31563;51.744;8.252;2023-02-26T01:02:18;1.60;;;0.60;;
45842;SDS011;31563;51.744;8.252;2023-02-26T01:04:46;1.67;;;0.60;;
45842;SDS011;31563;51.744;8.252;2023-02-26T01:07:15;2.15;;;0.40;;
45842;SDS011;31563;51.744;8.252;2023-02-26T01:09:48;0.70;;;0.30;;
45842;SDS011;31563;51.744;8.252;2023-02-26T01:12:17;1.45;;;0.47;;
45842;SDS011;31563;51.744;8.252;2023-02-26T01:14:46;0.90;;;0.40;;
45842;SDS011;31563;51.744;8.252;2023-02-26T01:17:16;1.40;;;0.50;;
45842;SDS011;31563;51.744;8.252;2023-02-26T01:19:51;1.33;;;0.50;;
45842;SDS011;31563;51.744;8.252;2023-02-26T01:22:22;1.52;;;0.52;;
45842;SDS011;31563;51.744;8.252;2023-02-26T01:24:58;0.77;;;0.40;;
45842;SDS011;31563;51.744;8.252;2023-02-26T01:27:30;1.98;;;0.55;;
45842;SDS011;31563;51.744;8.252;2023-02-26T01:29:59;0.90;;;0.40;;
45842;SDS011;31563;51.744;8.252;2023-02-26T01:32:29;0.90;;;0.47;;
45842;SDS011;31563;51.744;8.252;2023-02-26T01:35:12;0.82;;;0.50;;
45842;SDS011;31563;51.744;8.252;2023-02-26T01:37:52;1.50;;;0.50;;
45842;SDS011;31563;51.744;8.252;2023-02-26T01:40:33;1.35;;;0.50;;
45842;SDS011;31563;51.744;8.252;2023-02-26T01:43:14;1.10;;;0.50;;
45842;SDS011;31563;51.744;8.252;2023-02-26T01:45:51;1.10;;;0.40;;
45842;SDS011;31563;51.744;8.252;2023-02-26T01:48:30;0.85;;;0.40;;
45842;SDS011;31563;51.744;8.252;2023-02-26T01:51:03;1.25;;;0.50;;
45842;SDS011;31563;51.744;8.252;2023-02-26T01:53:32;1.10;;;0.40;;
45842;SDS011;31563;51.744;8.252;2023-02-26T01:56:00;1.10;;;0.50;;
45842;SDS011;31563;51.744;8.252;2023-02-26T01:58:33;1.75;;;0.40;;
45842;SDS011;31563;51.744;8.252;2023-02-26T02:01:03;1.85;;;0.50;;
45842;SDS011;31563;51.744;8.252;2023-02-26T02:03:34;1.40;;;0.30;;
45842;SDS011;31563;51.744;8.252;2023-02-26T02:06:07;1.25;;;0.40;;
45842;SDS011;31563;51.744;8.252;2023-02-26T02:08:37;1.83;;;0.50;;
45842;SDS011;31563;51.744;8.252;2023-02-26T02:11:06;1.70;;;0.63;;
45842;SDS011;31563;51.744;8.252;2023-02-26T02:13:38;0.98;;;0.40;;
45842;SDS011;31563;51.744;8.252;2023-02-26T02:16:16;1.23;;;0.50;;
45842;SDS011;31563;51.744;8.252;2023-02-26T02:18:51;1.45;;;0.50;;
45842;SDS011;31563;51.744;8.252;2023-02-26T02:21:27;0.85;;;0.40;;
45842;SDS011;31563;51.744;8.252;2023-02-26T02:24:18;1.05;;;0.40;;
45842;SDS011;31563;51.744;8.252;2023-02-26T02:26:57;1.10;;;0.65;;
45842;SDS011;31563;51.744;8.252;2023-02-26T02:29:43;1.08;;;0.52;;
45842;SDS011;31563;51.744;8.252;2023-02-26T02:32:31;1.15;;;0.50;;
45842;SDS011;31563;51.744;8.252;2023-02-26T02:35:06;0.68;;;0.40;;
45842;SDS011;31563;51.744;8.252;2023-02-26T02:37:40;0.90;;;0.38;;
45842;SDS011;31563;51.744;8.252;2023-02-26T02:40:13;0.68;;;0.40;;
45842;SDS011;31563;51.744;8.252;2023-02-26T02:42:46;0.80;;;0.30;;
45842;SDS011;31563;51.744;8.252;2023-02-26T02:45:21;1.00;;;0.40;;
45842;SDS011;31563;51.744;8.252;2023-02-26T02:47:56;1.77;;;0.40;;
45842;SDS011;31563;51.744;8.252;2023-02-26T02:50:29;0.95;;;0.50;;
45842;SDS011;31563;51.744;8.252;2023-02-26T02:53:01;1.02;;;0.40;;
45842;SDS011;31563;51.744;8.252;2023-02-26T02:55:33;1.80;;;0.55;;
45842;SDS011;31563;51.744;8.252;2023-02-26T02:58:05;0.77;;;0.40;;
45842;SDS011;31563;51.744;8.252;2023-02-26T03:00:39;1.27;;;0.40;;
45842;SDS011;31563;51.744;8.252;2023-02-26T03:03:15;1.08;;;0.40;;
45842;SDS011;31563;51.744;8.252;2023-02-26T03:05:47;0.98;;;0.50;;
45842;SDS011;31563;51.744;8.252;2023-02-26T03:08:16;1.60;;;0.50;;
45842;SDS011;31563;51.744;8.252;2023-02-26T03:10:47;1.15;;;0.40;;
45842;SDS011;31563;51.744;8.252;2023-02-26T03:13:16;1.92;;;0.77;;
45842;SDS011;31563;51.744;8.252;2023-02-26T03:15:54;1.75;;;0.57;;
45842;SDS011;31563;51.744;8.252;2023-02-26T03:18:33;0.75;;;0.50;;
45842;SDS011;31563;51.744;8.252;2023-02-26T03:21:10;1.60;;;0.50;;
45842;SDS011;31563;51.744;8.252;2023-02-26T03:23:45;1.00;;;0.30;;
45842;SDS011;31563;51.744;8.252;2023-02-26T03:26:21;0.82;;;0.30;;
45842;SDS011;31563;51.744;8.252;2023-02-26T03:28:55;1.58;;;0.50;;
45842;SDS011;31563;51.744;8.252;2023-02-26T03:31:29;1.10;;;0.80;;
45842;SDS011;31563;51.744;8.252;2023-02-26T03:34:04;0.95;;;0.50;;
45842;SDS011;31563;51.744;8.252;2023-02-26T03:36:37;0.90;;;0.47;;
45842;SDS011;31563;51.744;8.252;2023-02-26T03:39:08;2.42;;;0.50;;
45842;SDS011;31563;51.744;8.252;2023-02-26T03:41:41;2.17;;;0.77;;
45842;SDS011;31563;51.744;8.252;2023-02-26T03:44:13;1.23;;;0.40;;
45842;SDS011;31563;51.744;8.252;2023-02-26T03:46:48;1.10;;;0.57;;
45842;SDS011;31563;51.744;8.252;2023-02-26T03:49:22;0.63;;;0.30;;
45842;SDS011;31563;51.744;8.252;2023-02-26T03:51:54;1.05;;;0.50;;
45842;SDS011;31563;51.744;8.252;2023-02-26T03:54:25;1.60;;;0.50;;
45842;SDS011;31563;51.744;8.252;2023-02-26T03:56:56;0.90;;;0.40;;
45842;SDS011;31563;51.744;8.252;2023-02-26T03:59:24;1.42;;;0.47;;
45842;SDS011;31563;51.744;8.252;2023-02-26T04:01:54;1.48;;;0.40;;
45842;SDS011;31563;51.744;8.252;2023-02-26T04:04:27;1.83;;;0.40;;
45842;SDS011;31563;51.744;8.252;2023-02-26T04:07:00;0.73;;;0.38;;
45842;SDS011;31563;51.744;8.252;2023-02-26T04:09:29;0.60;;;0.40;;
45842;SDS011;31563;51.744;8.252;2023-02-26T04:11:57;0.73;;;0.40;;
45842;SDS011;31563;51.744;8.252;2023-02-26T04:14:25;1.10;;;0.45;;
45842;SDS011;31563;51.744;8.252;2023-02-26T04:16:54;0.70;;;0.40;;
45842;SDS011;31563;51.744;8.252;2023-02-26T04:19:22;0.88;;;0.40;;
45842;SDS011;31563;51.744;8.252;2023-02-26T04:21:51;1.13;;;0.60;;
45842;SDS011;31563;51.744;8.252;2023-02-26T04:24:20;1.95;;;0.60;;
45842;SDS011;31563;51.744;8.252;2023-02-26T04:26:48;0.80;;;0.40;;
45842;SDS011;31563;51.744;8.252;2023-02-26T04:29:17;0.93;;;0.47;;
45842;SDS011;31563;51.744;8.252;2023-02-26T04:31:45;0.82;;;0.50;;
45842;SDS011;31563;51.744;8.252;2023-02-26T04:34:13;0.82;;;0.35;;
45842;SDS011;31563;51.744;8.252;2023-02-26T04:36:41;1.63;;;0.40;;
45842;SDS011;31563;51.744;8.252;2023-02-26T04:39:11;0.98;;;0.43;;
45842;SDS011;31563;51.744;8.252;2023-02-26T04:41:39;0.68;;;0.50;;
45842;SDS011;31563;51.744;8.252;2023-02-26T04:44:07;1.45;;;0.40;;
45842;SDS011;31563;51.744;8.252;2023-02-26T04:46:35;0.52;;;0.30;;
45842;SDS011;31563;51.744;8.252;2023-02-26T04:49:03;0.65;;;0.40;;
45842;SDS011;31563;51.744;8.252;2023-02-26T04:51:32;0.98;;;0.40;;
45842;SDS011;31563;51.744;8.252;2023-02-26T04:54:00;0.70;;;0.40;;
45842;SDS011;31563;51.744;8.252;2023-02-26T04:56:29;0.75;;;0.35;;
45842;SDS011;31563;51.744;8.252;2023-02-26T04:58:58;0.52;;;0.25;;
45842;SDS011;31563;51.744;8.252;2023-02-26T05:01:27;1.10;;;0.50;;
45842;SDS011;31563;51.744;8.252;2023-02-26T05:03:55;0.80;;;0.50;;
45842;SDS011;31563;51.744;8.252;2023-02-26T05:06:23;1.83;;;0.50;;
45842;SDS011;31563;51.744;8.252;2023-02-26T05:08:52;1.05;;;0.40;;
45842;SDS011;31563;51.744;8.252;2023-02-26T05:11:20;0.80;;;0.43;;
45842;SDS011;31563;51.744;8.252;2023-02-26T05:13:50;0.60;;;0.35;;
45842;SDS011;31563;51.744;8.252;2023-02-26T05:16:18;1.30;;;0.52;;
45842;SDS011;31563;51.744;8.252;2023-02-26T05:18:46;0.35;;;0.32;;
45842;SDS011;31563;51.744;8.252;2023-02-26T05:21:14;0.68;;;0.30;;
45842;SDS011;31563;51.744;8.252;2023-02-26T05:23:43;0.73;;;0.32;;
45842;SDS011;31563;51.744;8.252;2023-02-26T05:26:11;0.40;;;0.28;;
45842;SDS011;31563;51.744;8.252;2023-02-26T05:28:39;1.77;;;0.40;;
45842;SDS011;31563;51.744;8.252;2023-02-26T05:31:12;0.73;;;0.30;;
45842;SDS011;31563;51.744;8.252;2023-02-26T05:33:41;1.45;;;0.70;;
45842;SDS011;31563;51.744;8.252;2023-02-26T05:36:09;1.02;;;0.32;;
45842;SDS011;31563;51.744;8.252;2023-02-26T05:38:37;0.70;;;0.40;;
45842;SDS011;31563;51.744;8.252;2023-02-26T05:41:05;1.10;;;0.47;;
45842;SDS011;31563;51.744;8.252;2023-02-26T05:43:33;0.95;;;0.43;;
45842;SDS011;31563;51.744;8.252;2023-02-26T05:46:02;1.13;;;0.70;;
45842;SDS011;31563;51.744;8.252;2023-02-26T05:51:01;0.73;;;0.30;;
45842;SDS011;31563;51.744;8.252;2023-02-26T05:53:29;0.90;;;0.47;;
45842;SDS011;31563;51.744;8.252;2023-02-26T05:55:58;1.08;;;0.50;;
45842;SDS011;31563;51.744;8.252;2023-02-26T05:58:26;1.17;;;0.40;;
45842;SDS011;31563;51.744;8.252;2023-02-26T06:00:57;0.77;;;0.30;;
45842;SDS011;31563;51.744;8.252;2023-02-26T06:03:25;1.38;;;0.40;;
45842;SDS011;31563;51.744;8.252;2023-02-26T06:05:55;0.93;;;0.30;;
45842;SDS011;31563;51.744;8.252;2023-02-26T06:08:23;1.00;;;0.40;;
45842;SDS011;31563;51.744;8.252;2023-02-26T06:10:52;0.63;;;0.22;;
45842;SDS011;31563;51.744;8.252;2023-02-26T06:13:20;0.80;;;0.35;;
45842;SDS011;31563;51.744;8.252;2023-02-26T06:15:48;1.17;;;0.52;;
45842;SDS011;31563;51.744;8.252;2023-02-26T06:18:17;1.38;;;0.57;;
45842;SDS011;31563;51.744;8.252;2023-02-26T06:20:45;1.17;;;0.40;;
45842;SDS011;31563;51.744;8.252;2023-02-26T06:23:15;1.02;;;0.32;;
45842;SDS011;31563;51.744;8.252;2023-02-26T06:25:43;1.20;;;0.30;;
45842;SDS011;31563;51.744;8.252;2023-02-26T06:28:11;0.90;;;0.40;;
45842;SDS011;31563;51.744;8.252;2023-02-26T06:30:39;2.03;;;0.43;;
45842;SDS011;31563;51.744;8.252;2023-02-26T06:33:08;0.82;;;0.40;;
45842;SDS011;31563;51.744;8.252;2023-02-26T06:35:36;0.90;;;0.47;;
45842;SDS011;31563;51.744;8.252;2023-02-26T06:38:04;0.55;;;0.30;;
45842;SDS011;31563;51.744;8.252;2023-02-26T06:40:34;1.10;;;0.45;;
45842;SDS011;31563;51.744;8.252;2023-02-26T06:43:02;0.93;;;0.30;;
45842;SDS011;31563;51.744;8.252;2023-02-26T06:45:30;0.93;;;0.40;;
45842;SDS011;31563;51.744;8.252;2023-02-26T06:47:59;2.22;;;0.60;;
45842;SDS011;31563;51.744;8.252;2023-02-26T06:50:27;2.17;;;0.80;;
45842;SDS011;31563;51.744;8.252;2023-02-26T06:52:56;2.83;;;1.15;;
45842;SDS011;31563;51.744;8.252;2023-02-26T06:55:25;1.10;;;0.55;;
45842;SDS011;31563;51.744;8.252;2023-02-26T06:57:54;1.17;;;0.60;;
45842;SDS011;31563;51.744;8.252;2023-02-26T07:00:23;2.63;;;0.68;;
45842;SDS011;31563;51.744;8.252;2023-02-26T07:02:52;2.65;;;0.90;;
45842;SDS011;31563;51.744;8.252;2023-02-26T07:05:21;2.92;;;0.98;;
45842;SDS011;31563;51.744;8.252;2023-02-26T07:07:49;2.13;;;0.88;;
45842;SDS011;31563;51.744;8.252;2023-02-26T07:10:17;6.13;;;1.52;;
45842;SDS011;31563;51.744;8.252;2023-02-26T07:12:46;2.20;;;0.80;;
45842;SDS011;31563;51.744;8.252;2023-02-26T07:15:16;2.80;;;0.90;;
45842;SDS011;31563;51.744;8.252;2023-02-26T07:17:44;2.65;;;0.85;;
45842;SDS011;31563;51.744;8.252;2023-02-26T07:20:12;2.03;;;0.80;;
45842;SDS011;31563;51.744;8.252;2023-02-26T07:22:40;2.35;;;0.80;;
45842;SDS011;31563;51.744;8.252;2023-02-26T07:25:09;1.58;;;0.65;;
45842;SDS011;31563;51.744;8.252;2023-02-26T07:27:38;1.97;;;0.60;;
45842;SDS011;31563;51.744;8.252;2023-02-26T07:30:09;2.35;;;0.73;;
45842;SDS011;31563;51.744;8.252;2023-02-26T07:32:39;1.63;;;0.70;;
45842;SDS011;31563;51.744;8.252;2023-02-26T07:35:08;1.90;;;0.85;;
45842;SDS011;31563;51.744;8.252;2023-02-26T07:37:37;1.70;;;0.65;;
45842;SDS011;31563;51.744;8.252;2023-02-26T07:40:05;3.60;;;1.00;;
45842;SDS011;31563;51.744;8.252;2023-02-26T07:42:35;2.17;;;1.00;;
45842;SDS011;31563;51.744;8.252;2023-02-26T07:45:03;2.90;;;1.02;;
45842;SDS011;31563;51.744;8.252;2023-02-26T07:47:33;1.17;;;0.73;;
45842;SDS011;31563;51.744;8.252;2023-02-26T07:50:03;1.75;;;0.50;;
45842;SDS011;31563;51.744;8.252;2023-02-26T07:52:32;1.98;;;0.80;;
45842;SDS011;31563;51.744;8.252;2023-02-26T07:55:00;1.67;;;0.63;;
45842;SDS011;31563;51.744;8.252;2023-02-26T07:57:28;1.38;;;0.60;;
45842;SDS011;31563;51.744;8.252;2023-02-26T07:59:56;1.20;;;0.60;;
45842;SDS011;31563;51.744;8.252;2023-02-26T08:02:25;1.00;;;0.40;;
45842;SDS011;31563;51.744;8.252;2023-02-26T08:04:53;2.72;;;0.95;;
45842;SDS011;31563;51.744;8.252;2023-02-26T08:07:23;1.05;;;0.47;;
45842;SDS011;31563;51.744;8.252;2023-02-26T08:09:51;1.25;;;0.52;;
45842;SDS011;31563;51.744;8.252;2023-02-26T08:12:19;1.33;;;0.55;;
45842;SDS011;31563;51.744;8.252;2023-02-26T08:14:47;1.55;;;0.55;;
45842;SDS011;31563;51.744;8.252;2023-02-26T08:17:16;1.13;;;0.52;;
45842;SDS011;31563;51.744;8.252;2023-02-26T08:19:44;1.58;;;0.70;;
45842;SDS011;31563;51.744;8.252;2023-02-26T08:22:12;1.00;;;0.50;;
45842;SDS011;31563;51.744;8.252;2023-02-26T08:24:42;1.38;;;0.50;;
45842;SDS011;31563;51.744;8.252;2023-02-26T08:27:10;2.67;;;0.80;;
45842;SDS011;31563;51.744;8.252;2023-02-26T08:29:39;2.22;;;0.90;;
45842;SDS011;31563;51.744;8.252;2023-02-26T08:32:08;1.88;;;0.70;;
45842;SDS011;31563;51.744;8.252;2023-02-26T08:34:36;1.90;;;0.93;;
45842;SDS011;31563;51.744;8.252;2023-02-26T08:37:04;2.25;;;0.82;;
45842;SDS011;31563;51.744;8.252;2023-02-26T08:39:36;3.95;;;1.23;;
45842;SDS011;31563;51.744;8.252;2023-02-26T08:42:06;2.20;;;0.98;;
45842;SDS011;31563;51.744;8.252;2023-02-26T08:44:36;1.38;;;0.70;;
45842;SDS011;31563;51.744;8.252;2023-02-26T08:47:04;2.33;;;0.95;;
45842;SDS011;31563;51.744;8.252;2023-02-26T08:49:32;1.20;;;0.50;;
45842;SDS011;31563;51.744;8.252;2023-02-26T08:52:01;2.55;;;0.90;;
45842;SDS011;31563;51.744;8.252;2023-02-26T08:54:29;1.20;;;0.70;;
45842;SDS011;31563;51.744;8.252;2023-02-26T08:56:57;3.35;;;0.80;;
45842;SDS011;31563;51.744;8.252;2023-02-26T08:59:27;1.70;;;0.65;;
45842;SDS011;31563;51.744;8.252;2023-02-26T09:01:55;1.98;;;0.52;;
45842;SDS011;31563;51.744;8.252;2023-02-26T09:04:23;1.30;;;0.60;;
45842;SDS011;31563;51.744;8.252;2023-02-26T09:06:54;1.50;;;0.90;;
45842;SDS011;31563;51.744;8.252;2023-02-26T09:09:22;1.85;;;0.75;;
45842;SDS011;31563;51.744;8.252;2023-02-26T09:11:50;3.08;;;0.85;;
45842;SDS011;31563;51.744;8.252;2023-02-26T09:14:19;2.38;;;0.63;;
45842;SDS011;31563;51.744;8.252;2023-02-26T09:16:48;1.63;;;0.55;;
45842;SDS011;31563;51.744;8.252;2023-02-26T09:19:16;1.92;;;0.63;;
45842;SDS011;31563;51.744;8.252;2023-02-26T09:21:45;1.13;;;0.60;;
45842;SDS011;31563;51.744;8.252;2023-02-26T09:24:13;1.15;;;0.65;;
45842;SDS011;31563;51.744;8.252;2023-02-26T09:26:41;1.95;;;0.50;;
45842;SDS011;31563;51.744;8.252;2023-02-26T09:29:09;2.35;;;0.50;;
45842;SDS011;31563;51.744;8.252;2023-02-26T09:31:38;0.90;;;0.57;;
45842;SDS011;31563;51.744;8.252;2023-02-26T09:34:08;2.95;;;0.60;;
45842;SDS011;31563;51.744;8.252;2023-02-26T09:36:37;1.90;;;0.75;;
45842;SDS011;31563;51.744;8.252;2023-02-26T09:39:06;1.55;;;0.50;;
45842;SDS011;31563;51.744;8.252;2023-02-26T09:41:35;0.80;;;0.30;;
45842;SDS011;31563;51.744;8.252;2023-02-26T09:44:18;1.60;;;0.60;;
45842;SDS011;31563;51.744;8.252;2023-02-26T09:46:50;2.45;;;0.50;;
45842;SDS011;31563;51.744;8.252;2023-02-26T09:49:27;1.77;;;0.50;;
45842;SDS011;31563;51.744;8.252;2023-02-26T09:52:03;2.00;;;0.70;;
45842;SDS011;31563;51.744;8.252;2023-02-26T09:54:40;0.88;;;0.30;;
45842;SDS011;31563;51.744;8.252;2023-02-26T09:57:14;2.95;;;0.52;;
45842;SDS011;31563;51.744;8.252;2023-02-26T09:59:52;1.10;;;0.40;;
45842;SDS011;31563;51.744;8.252;2023-02-26T10:02:22;1.98;;;0.55;;
45842;SDS011;31563;51.744;8.252;2023-02-26T10:05:00;1.88;;;0.55;;
45842;SDS011;31563;51.744;8.252;2023-02-26T10:07:35;1.38;;;0.40;;
45842;SDS011;31563;51.744;8.252;2023-02-26T10:10:14;0.82;;;0.40;;
45842;SDS011;31563;51.744;8.252;2023-02-26T10:12:49;1.15;;;0.32;;
45842;SDS011;31563;51.744;8.252;2023-02-26T10:20:26;0.98;;;0.30;;
45842;SDS011;31563;51.744;8.252;2023-02-26T10:22:59;0.82;;;0.40;;
45842;SDS011;31563;51.744;8.252;2023-02-26T10:25:32;0.70;;;0.32;;
45842;SDS011;31563;51.744;8.252;2023-02-26T10:28:07;0.98;;;0.40;;
45842;SDS011;31563;51.744;8.252;2023-02-26T10:30:48;1.17;;;0.32;;
45842;SDS011;31563;51.744;8.252;2023-02-26T10:33:23;0.70;;;0.30;;
45842;SDS011;31563;51.744;8.252;2023-02-26T10:36:00;0.60;;;0.30;;
45842;SDS011;31563;51.744;8.252;2023-02-26T10:38:34;1.02;;;0.40;;
45842;SDS011;31563;51.744;8.252;2023-02-26T10:41:03;1.88;;;0.35;;
45842;SDS011;31563;51.744;8.252;2023-02-26T10:43:38;0.93;;;0.43;;
45842;SDS011;31563;51.744;8.252;2023-02-26T10:46:11;0.93;;;0.30;;
45842;SDS011;31563;51.744;8.252;2023-02-26T10:48:49;1.30;;;0.43;;
45842;SDS011;31563;51.744;8.252;2023-02-26T10:51:28;1.13;;;0.30;;
45842;SDS011;31563;51.744;8.252;2023-02-26T10:54:03;1.55;;;0.30;;
45842;SDS011;31563;51.744;8.252;2023-02-26T10:56:38;0.45;;;0.20;;
45842;SDS011;31563;51.744;8.252;2023-02-26T10:59:06;0.35;;;0.25;;
45842;SDS011;31563;51.744;8.252;2023-02-26T11:01:34;1.25;;;0.50;;
45842;SDS011;31563;51.744;8.252;2023-02-26T11:04:04;2.38;;;0.90;;
45842;SDS011;31563;51.744;8.252;2023-02-26T11:06:37;2.33;;;0.60;;
45842;SDS011;31563;51.744;8.252;2023-02-26T11:09:13;2.53;;;0.77;;
45842;SDS011;31563;51.744;8.252;2023-02-26T11:11:47;2.30;;;0.90;;
45842;SDS011;31563;51.744;8.252;2023-02-26T11:14:18;2.08;;;0.77;;
45842;SDS011;31563;51.744;8.252;2023-02-26T11:16:48;4.47;;;1.35;;
45842;SDS011;31563;51.744;8.252;2023-02-26T11:19:19;2.13;;;0.80;;
45842;SDS011;31563;51.744;8.252;2023-02-26T11:21:54;2.10;;;1.10;;
45842;SDS011;31563;51.744;8.252;2023-02-26T11:24:26;4.03;;;1.45;;
45842;SDS011;31563;51.744;8.252;2023-02-26T11:26:57;3.55;;;1.33;;
45842;SDS011;31563;51.744;8.252;2023-02-26T11:29:32;3.88;;;1.13;;
45842;SDS011;31563;51.744;8.252;2023-02-26T11:32:04;4.50;;;1.15;;
45842;SDS011;31563;51.744;8.252;2023-02-26T11:34:33;9.35;;;1.55;;
45842;SDS011;31563;51.744;8.252;2023-02-26T11:37:05;16.38;;;3.70;;
45842;SDS011;31563;51.744;8.252;2023-02-26T11:39:33;14.38;;;4.38;;
45842;SDS011;31563;51.744;8.252;2023-02-26T11:42:04;9.63;;;2.97;;
45842;SDS011;31563;51.744;8.252;2023-02-26T11:44:34;11.27;;;2.43;;
45842;SDS011;31563;51.744;8.252;2023-02-26T11:47:06;9.93;;;3.10;;
45842;SDS011;31563;51.744;8.252;2023-02-26T11:49:39;11.10;;;3.38;;
45842;SDS011;31563;51.744;8.252;2023-02-26T11:52:17;9.65;;;2.70;;
45842;SDS011;31563;51.744;8.252;2023-02-26T11:54:49;7.70;;;2.30;;
45842;SDS011;31563;51.744;8.252;2023-02-26T11:57:23;8.68;;;2.33;;
45842;SDS011;31563;51.744;8.252;2023-02-26T11:59:52;9.68;;;2.92;;
45842;SDS011;31563;51.744;8.252;2023-02-26T12:02:22;6.25;;;2.38;;
45842;SDS011;31563;51.744;8.252;2023-02-26T12:04:54;4.55;;;1.05;;
45842;SDS011;31563;51.744;8.252;2023-02-26T12:07:27;5.40;;;1.38;;
45842;SDS011;31563;51.744;8.252;2023-02-26T12:09:56;7.82;;;1.40;;
45842;SDS011;31563;51.744;8.252;2023-02-26T12:12:29;5.50;;;1.73;;
45842;SDS011;31563;51.744;8.252;2023-02-26T12:15:19;7.15;;;1.75;;
45842;SDS011;31563;51.744;8.252;2023-02-26T12:18:03;8.85;;;1.75;;
45842;SDS011;31563;51.744;8.252;2023-02-26T12:20:45;5.03;;;1.20;;
45842;SDS011;31563;51.744;8.252;2023-02-26T12:23:33;7.50;;;1.55;;
45842;SDS011;31563;51.744;8.252;2023-02-26T12:26:23;4.20;;;0.95;;
45842;SDS011;31563;51.744;8.252;2023-02-26T12:29:05;7.28;;;1.42;;
45842;SDS011;31563;51.744;8.252;2023-02-26T12:34:51;4.38;;;1.00;;
45842;SDS011;31563;51.744;8.252;2023-02-26T12:37:43;7.47;;;1.05;;
45842;SDS011;31563;51.744;8.252;2023-02-26T12:40:26;3.05;;;0.77;;
45842;SDS011;31563;51.744;8.252;2023-02-26T12:43:24;4.90;;;0.80;;
45842;SDS011;31563;51.744;8.252;2023-02-26T12:46:01;3.33;;;0.50;;
45842;SDS011;31563;51.744;8.252;2023-02-26T12:48:52;1.10;;;0.35;;
45842;SDS011;31563;51.744;8.252;2023-02-26T12:51:44;3.42;;;0.40;;
45842;SDS011;31563;51.744;8.252;2023-02-26T12:54:27;3.88;;;0.70;;
45842;SDS011;31563;51.744;8.252;2023-02-26T12:57:13;3.83;;;0.40;;
45842;SDS011;31563;51.744;8.252;2023-02-26T13:00:19;2.70;;;0.68;;
45842;SDS011;31563;51.744;8.252;2023-02-26T13:09:00;2.00;;;0.45;;
45842;SDS011;31563;51.744;8.252;2023-02-26T13:11:39;1.00;;;0.50;;
45842;SDS011;31563;51.744;8.252;2023-02-26T13:14:23;1.45;;;0.43;;
45842;SDS011;31563;51.744;8.252;2023-02-26T13:17:03;1.00;;;0.40;;
45842;SDS011;31563;51.744;8.252;2023-02-26T13:19:38;1.40;;;0.43;;
45842;SDS011;31563;51.744;8.252;2023-02-26T13:22:14;0.98;;;0.50;;
45842;SDS011;31563;51.744;8.252;2023-02-26T13:24:48;2.08;;;0.60;;
45842;SDS011;31563;51.744;8.252;2023-02-26T13:27:21;1.63;;;0.60;;
45842;SDS011;31563;51.744;8.252;2023-02-26T13:29:58;2.33;;;0.50;;
45842;SDS011;31563;51.744;8.252;2023-02-26T13:32:40;1.70;;;0.60;;
45842;SDS011;31563;51.744;8.252;2023-02-26T13:35:15;4.30;;;0.50;;
45842;SDS011;31563;51.744;8.252;2023-02-26T13:37:48;5.55;;;0.60;;
45842;SDS011;31563;51.744;8.252;2023-02-26T13:40:27;2.17;;;0.52;;
45842;SDS011;31563;51.744;8.252;2023-02-26T13:43:14;1.90;;;0.40;;
45842;SDS011;31563;51.744;8.252;2023-02-26T13:45:55;1.92;;;0.40;;
45842;SDS011;31563;51.744;8.252;2023-02-26T13:48:35;1.33;;;0.30;;
45842;SDS011;31563;51.744;8.252;2023-02-26T13:51:10;1.73;;;0.50;;
45842;SDS011;31563;51.744;8.252;2023-02-26T13:53:52;2.00;;;0.40;;
45842;SDS011;31563;51.744;8.252;2023-02-26T14:02:44;1.98;;;0.60;;
45842;SDS011;31563;51.744;8.252;2023-02-26T14:05:28;2.20;;;0.60;;
45842;SDS011;31563;51.744;8.252;2023-02-26T14:08:09;2.90;;;0.50;;
45842;SDS011;31563;51.744;8.252;2023-02-26T14:10:53;2.60;;;0.40;;
45842;SDS011;31563;51.744;8.252;2023-02-26T14:13:23;1.77;;;0.32;;
45842;SDS011;31563;51.744;8.252;2023-02-26T14:16:00;2.85;;;0.30;;
45842;SDS011;31563;51.744;8.252;2023-02-26T14:18:42;1.85;;;0.50;;
45842;SDS011;31563;51.744;8.252;2023-02-26T14:21:36;5.75;;;1.42;;
45842;SDS011;31563;51.744;8.252;2023-02-26T14:24:12;8.20;;;2.08;;
45842;SDS011;31563;51.744;8.252;2023-02-26T14:26:44;7.95;;;2.10;;
45842;SDS011;31563;51.744;8.252;2023-02-26T14:29:20;6.05;;;1.80;;
45842;SDS011;31563;51.744;8.252;2023-02-26T14:31:53;5.95;;;1.70;;
45842;SDS011;31563;51.744;8.252;2023-02-26T14:34:34;10.55;;;1.60;;
45842;SDS011;31563;51.744;8.252;2023-02-26T14:37:06;6.80;;;1.50;;
45842;SDS011;31563;51.744;8.252;2023-02-26T14:39:40;8.00;;;1.73;;
45842;SDS011;31563;51.744;8.252;2023-02-26T14:42:12;6.32;;;1.33;;
45842;SDS011;31563;51.744;8.252;2023-02-26T14:44:45;8.65;;;2.08;;
45842;SDS011;31563;51.744;8.252;2023-02-26T14:47:15;7.50;;;1.77;;
45842;SDS011;31563;51.744;8.252;2023-02-26T14:49:45;4.97;;;1.58;;
45842;SDS011;31563;51.744;8.252;2023-02-26T14:52:30;5.38;;;1.70;;
45842;SDS011;31563;51.744;8.252;2023-02-26T14:55:31;6.82;;;1.30;;
45842;SDS011;31563;51.744;8.252;2023-02-26T14:58:16;6.47;;;1.48;;
45842;SDS011;31563;51.744;8.252;2023-02-26T15:01:07;5.13;;;1.40;;
45842;SDS011;31563;51.744;8.252;2023-02-26T15:06:48;6.65;;;1.75;;
45842;SDS011;31563;51.744;8.252;2023-02-26T15:09:32;4.45;;;1.30;;
45842;SDS011;31563;51.744;8.252;2023-02-26T15:12:12;6.15;;;1.30;;
45842;SDS011;31563;51.744;8.252;2023-02-26T15:15:02;3.55;;;0.90;;
45842;SDS011;31563;51.744;8.252;2023-02-26T15:17:49;5.47;;;1.38;;
45842;SDS011;31563;51.744;8.252;2023-02-26T15:20:41;3.40;;;0.90;;
45842;SDS011;31563;51.744;8.252;2023-02-26T15:23:26;5.40;;;0.95;;
45842;SDS011;31563;51.744;8.252;2023-02-26T15:26:02;6.75;;;1.42;;
45842;SDS011;31563;51.744;8.252;2023-02-26T15:28:33;2.30;;;0.70;;
45842;SDS011;31563;51.744;8.252;2023-02-26T15:31:04;3.33;;;0.80;;
45842;SDS011;31563;51.744;8.252;2023-02-26T15:33:38;2.40;;;0.70;;
45842;SDS011;31563;51.744;8.252;2023-02-26T15:36:07;4.93;;;0.80;;
45842;SDS011;31563;51.744;8.252;2023-02-26T15:38:41;3.22;;;0.70;;
45842;SDS011;31563;51.744;8.252;2023-02-26T15:41:13;4.32;;;0.68;;
45842;SDS011;31563;51.744;8.252;2023-02-26T15:46:13;2.20;;;0.63;;
45842;SDS011;31563;51.744;8.252;2023-02-26T15:51:11;2.05;;;0.55;;
45842;SDS011;31563;51.744;8.252;2023-02-26T15:53:45;4.35;;;1.13;;